sensor_id;sensor_type;location;lat;lon;timestamp;temperature;humidity
65836;SHT30;52595;51.608;7.216;2022-12-18T00:02:09;-8.95;97.84
65836;SHT30;52595;51.608;7.216;2022-12-18T00:04:34;-8.99;97.25
65836;SHT30;52595;51.608;7.216;2022-12-18T00:07:00;-8.98;97.64
65836;SHT30;52595;51.608;7.216;2022-12-18T00:09:25;-8.91;97.73
65836;SHT30;52595;51.608;7.216;2022-12-18T00:11:51;-8.88;97.62
65836;SHT30;52595;51.608;7.216;2022-12-18T00:14:16;-8.94;97.48
65836;SHT30;52595;51.608;7.216;2022-12-18T00:16:45;-8.97;97.35
65836;SHT30;52595;51.608;7.216;2022-12-18T00:19:11;-9.01;97.16
65836;SHT30;52595;51.608;7.216;2022-12-18T00:21:37;-8.99;97.30
65836;SHT30;52595;51.608;7.216;2022-12-18T00:24:03;-8.98;97.20
65836;SHT30;52595;51.608;7.216;2022-12-18T00:26:31;-8.99;97.41
65836;SHT30;52595;51.608;7.216;2022-12-18T00:28:59;-9.01;97.52
65836;SHT30;52595;51.608;7.216;2022-12-18T00:31:25;-8.99;97.35
65836;SHT30;52595;51.608;7.216;2022-12-18T00:33:51;-8.99;97.85
65836;SHT30;52595;51.608;7.216;2022-12-18T00:36:19;-8.92;98.12
65836;SHT30;52595;51.608;7.216;2022-12-18T00:38:44;-8.83;98.32
65836;SHT30;52595;51.608;7.216;2022-12-18T00:41:11;-8.87;97.61
65836;SHT30;52595;51.608;7.216;2022-12-18T00:43:38;-8.91;97.44
65836;SHT30;52595;51.608;7.216;2022-12-18T00:46:04;-8.91;97.41
65836;SHT30;52595;51.608;7.216;2022-12-18T00:48:29;-8.84;98.11
65836;SHT30;52595;51.608;7.216;2022-12-18T00:50:54;-8.92;97.25
65836;SHT30;52595;51.608;7.216;2022-12-18T00:53:20;-8.91;97.20
65836;SHT30;52595;51.608;7.216;2022-12-18T00:55:45;-8.99;97.23
65836;SHT30;52595;51.608;7.216;2022-12-18T00:58:15;-8.83;98.41
65836;SHT30;52595;51.608;7.216;2022-12-18T01:00:42;-8.78;97.68
65836;SHT30;52595;51.608;7.216;2022-12-18T01:03:07;-8.68;97.87
65836;SHT30;52595;51.608;7.216;2022-12-18T01:05:33;-8.64;97.93
65836;SHT30;52595;51.608;7.216;2022-12-18T01:07:59;-8.61;97.57
65836;SHT30;52595;51.608;7.216;2022-12-18T01:10:24;-8.70;97.32
65836;SHT30;52595;51.608;7.216;2022-12-18T01:12:50;-8.83;97.36
65836;SHT30;52595;51.608;7.216;2022-12-18T01:15:17;-8.85;96.93
65836;SHT30;52595;51.608;7.216;2022-12-18T01:17:42;-8.85;97.49
65836;SHT30;52595;51.608;7.216;2022-12-18T01:20:09;-8.88;97.60
65836;SHT30;52595;51.608;7.216;2022-12-18T01:22:35;-8.95;96.93
65836;SHT30;52595;51.608;7.216;2022-12-18T01:25:01;-8.94;97.67
65836;SHT30;52595;51.608;7.216;2022-12-18T01:27:27;-8.99;97.54
65836;SHT30;52595;51.608;7.216;2022-12-18T01:29:52;-9.07;97.41
65836;SHT30;52595;51.608;7.216;2022-12-18T01:32:18;-9.14;97.25
65836;SHT30;52595;51.608;7.216;2022-12-18T01:34:44;-9.08;97.32
65836;SHT30;52595;51.608;7.216;2022-12-18T01:37:09;-9.08;96.92
65836;SHT30;52595;51.608;7.216;2022-12-18T01:39:35;-9.08;97.00
65836;SHT30;52595;51.608;7.216;2022-12-18T01:42:10;-9.09;96.94
65836;SHT30;52595;51.608;7.216;2022-12-18T01:47:21;-9.15;97.09
65836;SHT30;52595;51.608;7.216;2022-12-18T01:49:48;-9.19;96.62
65836;SHT30;52595;51.608;7.216;2022-12-18T01:52:14;-9.23;96.83
65836;SHT30;52595;51.608;7.216;2022-12-18T01:54:40;-9.28;96.81
65836;SHT30;52595;51.608;7.216;2022-12-18T01:57:06;-9.31;96.72
65836;SHT30;52595;51.608;7.216;2022-12-18T01:59:32;-9.32;96.71
65836;SHT30;52595;51.608;7.216;2022-12-18T02:01:59;-9.33;96.94
65836;SHT30;52595;51.608;7.216;2022-12-18T02:04:27;-9.35;96.77
65836;SHT30;52595;51.608;7.216;2022-12-18T02:07:23;-9.31;97.42
65836;SHT30;52595;51.608;7.216;2022-12-18T02:10:13;-9.29;97.01
65836;SHT30;52595;51.608;7.216;2022-12-18T02:13:25;-9.29;97.31
65836;SHT30;52595;51.608;7.216;2022-12-18T02:18:43;-9.36;96.89
65836;SHT30;52595;51.608;7.216;2022-12-18T02:23:52;-9.35;96.94
65836;SHT30;52595;51.608;7.216;2022-12-18T02:28:56;-9.40;96.93
65836;SHT30;52595;51.608;7.216;2022-12-18T02:31:27;-9.38;97.53
65836;SHT30;52595;51.608;7.216;2022-12-18T02:33:55;-9.32;97.65
65836;SHT30;52595;51.608;7.216;2022-12-18T02:36:22;-9.23;98.17
65836;SHT30;52595;51.608;7.216;2022-12-18T02:38:50;-9.21;97.92
65836;SHT30;52595;51.608;7.216;2022-12-18T02:41:16;-9.08;98.15
65836;SHT30;52595;51.608;7.216;2022-12-18T02:43:52;-9.01;98.08
65836;SHT30;52595;51.608;7.216;2022-12-18T02:46:34;-9.04;97.73
65836;SHT30;52595;51.608;7.216;2022-12-18T02:51:53;-8.87;98.67
65836;SHT30;52595;51.608;7.216;2022-12-18T02:56:55;-8.97;97.38
65836;SHT30;52595;51.608;7.216;2022-12-18T02:59:35;-9.02;97.19
65836;SHT30;52595;51.608;7.216;2022-12-18T03:02:53;-9.09;97.53
65836;SHT30;52595;51.608;7.216;2022-12-18T03:05:43;-9.14;97.41
65836;SHT30;52595;51.608;7.216;2022-12-18T03:07:57;-9.05;98.20
65836;SHT30;52595;51.608;7.216;2022-12-18T03:10:40;-9.07;97.54
65836;SHT30;52595;51.608;7.216;2022-12-18T03:13:12;-9.14;97.37
65836;SHT30;52595;51.608;7.216;2022-12-18T03:15:44;-9.18;97.43
65836;SHT30;52595;51.608;7.216;2022-12-18T03:18:24;-9.21;97.38
65836;SHT30;52595;51.608;7.216;2022-12-18T03:20:51;-9.18;97.56
65836;SHT30;52595;51.608;7.216;2022-12-18T03:23:21;-9.21;97.55
65836;SHT30;52595;51.608;7.216;2022-12-18T03:25:49;-9.18;97.40
65836;SHT30;52595;51.608;7.216;2022-12-18T03:28:20;-9.16;97.64
65836;SHT30;52595;51.608;7.216;2022-12-18T03:30:55;-9.08;97.88
65836;SHT30;52595;51.608;7.216;2022-12-18T03:33:26;-9.08;97.51
65836;SHT30;52595;51.608;7.216;2022-12-18T03:35:52;-9.09;97.63
65836;SHT30;52595;51.608;7.216;2022-12-18T03:38:18;-9.12;97.38
65836;SHT30;52595;51.608;7.216;2022-12-18T03:43:51;-9.18;97.32
65836;SHT30;52595;51.608;7.216;2022-12-18T03:46:30;-9.23;97.41
65836;SHT30;52595;51.608;7.216;2022-12-18T03:49:14;-9.25;97.51
65836;SHT30;52595;51.608;7.216;2022-12-18T03:51:49;-9.28;97.56
65836;SHT30;52595;51.608;7.216;2022-12-18T03:54:16;-9.32;97.35
65836;SHT30;52595;51.608;7.216;2022-12-18T03:56:47;-9.25;98.40
65836;SHT30;52595;51.608;7.216;2022-12-18T03:59:13;-9.28;97.57
65836;SHT30;52595;51.608;7.216;2022-12-18T04:01:45;-9.29;97.46
65836;SHT30;52595;51.608;7.216;2022-12-18T04:04:12;-9.28;97.64
65836;SHT30;52595;51.608;7.216;2022-12-18T04:06:40;-9.23;97.80
65836;SHT30;52595;51.608;7.216;2022-12-18T04:09:07;-9.19;97.84
65836;SHT30;52595;51.608;7.216;2022-12-18T04:11:33;-9.25;97.52
65836;SHT30;52595;51.608;7.216;2022-12-18T04:13:58;-9.22;97.78
65836;SHT30;52595;51.608;7.216;2022-12-18T04:16:25;-9.26;97.21
65836;SHT30;52595;51.608;7.216;2022-12-18T04:18:51;-9.32;97.06
65836;SHT30;52595;51.608;7.216;2022-12-18T04:21:16;-9.32;97.14
65836;SHT30;52595;51.608;7.216;2022-12-18T04:23:42;-9.29;97.36
65836;SHT30;52595;51.608;7.216;2022-12-18T04:26:07;-9.31;97.36
65836;SHT30;52595;51.608;7.216;2022-12-18T04:28:33;-9.28;97.86
65836;SHT30;52595;51.608;7.216;2022-12-18T04:30:58;-9.19;97.61
65836;SHT30;52595;51.608;7.216;2022-12-18T04:33:23;-9.14;97.85
65836;SHT30;52595;51.608;7.216;2022-12-18T04:35:49;-9.07;98.08
65836;SHT30;52595;51.608;7.216;2022-12-18T04:38:14;-8.99;98.07
65836;SHT30;52595;51.608;7.216;2022-12-18T04:40:40;-8.92;97.97
65836;SHT30;52595;51.608;7.216;2022-12-18T04:43:05;-8.72;98.84
65836;SHT30;52595;51.608;7.216;2022-12-18T04:45:31;-8.68;98.30
65836;SHT30;52595;51.608;7.216;2022-12-18T04:47:58;-8.67;98.19
65836;SHT30;52595;51.608;7.216;2022-12-18T04:50:23;-8.65;98.08
65836;SHT30;52595;51.608;7.216;2022-12-18T04:52:49;-8.68;97.72
65836;SHT30;52595;51.608;7.216;2022-12-18T04:55:14;-8.74;97.75
65836;SHT30;52595;51.608;7.216;2022-12-18T04:57:42;-8.74;98.15
65836;SHT30;52595;51.608;7.216;2022-12-18T05:00:08;-8.77;97.87
65836;SHT30;52595;51.608;7.216;2022-12-18T05:02:34;-8.67;98.44
65836;SHT30;52595;51.608;7.216;2022-12-18T05:04:59;-8.56;98.59
65836;SHT30;52595;51.608;7.216;2022-12-18T05:07:25;-8.51;98.00
65836;SHT30;52595;51.608;7.216;2022-12-18T05:09:50;-8.44;98.14
65836;SHT30;52595;51.608;7.216;2022-12-18T05:12:15;-8.40;98.25
65836;SHT30;52595;51.608;7.216;2022-12-18T05:14:41;-8.46;97.76
65836;SHT30;52595;51.608;7.216;2022-12-18T05:17:06;-8.46;97.87
65836;SHT30;52595;51.608;7.216;2022-12-18T05:19:32;-8.34;97.85
65836;SHT30;52595;51.608;7.216;2022-12-18T05:21:57;-8.30;98.12
65836;SHT30;52595;51.608;7.216;2022-12-18T05:24:23;-8.20;98.40
65836;SHT30;52595;51.608;7.216;2022-12-18T05:26:48;-8.29;97.90
65836;SHT30;52595;51.608;7.216;2022-12-18T05:29:14;-8.26;98.08
65836;SHT30;52595;51.608;7.216;2022-12-18T05:31:40;-8.27;98.23
65836;SHT30;52595;51.608;7.216;2022-12-18T05:34:05;-8.26;98.02
65836;SHT30;52595;51.608;7.216;2022-12-18T05:36:31;-8.22;98.17
65836;SHT30;52595;51.608;7.216;2022-12-18T05:38:56;-8.14;98.46
65836;SHT30;52595;51.608;7.216;2022-12-18T05:41:22;-8.16;97.85
65836;SHT30;52595;51.608;7.216;2022-12-18T05:43:47;-8.07;97.97
65836;SHT30;52595;51.608;7.216;2022-12-18T05:46:15;-8.14;97.63
65836;SHT30;52595;51.608;7.216;2022-12-18T05:48:42;-8.07;97.99
65836;SHT30;52595;51.608;7.216;2022-12-18T05:51:10;-8.12;97.78
65836;SHT30;52595;51.608;7.216;2022-12-18T05:53:37;-8.14;97.95
65836;SHT30;52595;51.608;7.216;2022-12-18T05:56:05;-8.06;97.82
65836;SHT30;52595;51.608;7.216;2022-12-18T05:58:30;-8.13;97.28
65836;SHT30;52595;51.608;7.216;2022-12-18T06:00:57;-8.24;97.34
65836;SHT30;52595;51.608;7.216;2022-12-18T06:03:23;-8.24;97.97
65836;SHT30;52595;51.608;7.216;2022-12-18T06:05:48;-8.14;98.34
65836;SHT30;52595;51.608;7.216;2022-12-18T06:08:14;-8.19;97.63
65836;SHT30;52595;51.608;7.216;2022-12-18T06:10:40;-8.19;97.47
65836;SHT30;52595;51.608;7.216;2022-12-18T06:13:06;-8.09;98.41
65836;SHT30;52595;51.608;7.216;2022-12-18T06:15:32;-8.07;97.65
65836;SHT30;52595;51.608;7.216;2022-12-18T06:17:58;-8.07;97.84
65836;SHT30;52595;51.608;7.216;2022-12-18T06:20:23;-8.14;97.36
65836;SHT30;52595;51.608;7.216;2022-12-18T06:22:49;-8.26;97.01
65836;SHT30;52595;51.608;7.216;2022-12-18T06:25:14;-8.36;97.03
65836;SHT30;52595;51.608;7.216;2022-12-18T06:27:39;-8.43;97.07
65836;SHT30;52595;51.608;7.216;2022-12-18T06:30:05;-8.50;97.19
65836;SHT30;52595;51.608;7.216;2022-12-18T06:32:31;-8.56;97.18
65836;SHT30;52595;51.608;7.216;2022-12-18T06:34:57;-8.56;97.72
65836;SHT30;52595;51.608;7.216;2022-12-18T06:37:22;-8.58;97.43
65836;SHT30;52595;51.608;7.216;2022-12-18T06:39:51;-8.64;97.48
65836;SHT30;52595;51.608;7.216;2022-12-18T06:42:16;-8.67;97.21
65836;SHT30;52595;51.608;7.216;2022-12-18T06:44:42;-8.71;97.23
65836;SHT30;52595;51.608;7.216;2022-12-18T06:47:07;-8.74;97.28
65836;SHT30;52595;51.608;7.216;2022-12-18T06:49:33;-8.76;97.42
65836;SHT30;52595;51.608;7.216;2022-12-18T06:51:58;-8.77;97.47
65836;SHT30;52595;51.608;7.216;2022-12-18T06:54:23;-8.78;97.35
65836;SHT30;52595;51.608;7.216;2022-12-18T06:56:49;-8.72;97.74
65836;SHT30;52595;51.608;7.216;2022-12-18T06:59:14;-8.77;97.68
65836;SHT30;52595;51.608;7.216;2022-12-18T07:01:40;-8.76;97.60
65836;SHT30;52595;51.608;7.216;2022-12-18T07:04:05;-8.78;97.38
65836;SHT30;52595;51.608;7.216;2022-12-18T07:06:31;-8.77;97.21
65836;SHT30;52595;51.608;7.216;2022-12-18T07:08:57;-8.78;97.19
65836;SHT30;52595;51.608;7.216;2022-12-18T07:11:23;-8.78;97.57
65836;SHT30;52595;51.608;7.216;2022-12-18T07:13:48;-8.77;97.76
65836;SHT30;52595;51.608;7.216;2022-12-18T07:16:16;-8.62;98.36
65836;SHT30;52595;51.608;7.216;2022-12-18T07:18:42;-8.61;97.61
65836;SHT30;52595;51.608;7.216;2022-12-18T07:21:11;-8.56;97.66
65836;SHT30;52595;51.608;7.216;2022-12-18T07:23:36;-8.53;97.40
65836;SHT30;52595;51.608;7.216;2022-12-18T07:26:04;-8.36;98.08
65836;SHT30;52595;51.608;7.216;2022-12-18T07:28:30;-8.38;97.65
65836;SHT30;52595;51.608;7.216;2022-12-18T07:30:55;-8.22;97.79
65836;SHT30;52595;51.608;7.216;2022-12-18T07:33:21;-8.16;97.88
65836;SHT30;52595;51.608;7.216;2022-12-18T07:35:46;-8.06;97.90
65836;SHT30;52595;51.608;7.216;2022-12-18T07:38:12;-8.10;97.33
65836;SHT30;52595;51.608;7.216;2022-12-18T07:40:37;-8.07;97.17
65836;SHT30;52595;51.608;7.216;2022-12-18T07:43:02;-7.91;97.65
65836;SHT30;52595;51.608;7.216;2022-12-18T07:45:28;-7.92;97.31
65836;SHT30;52595;51.608;7.216;2022-12-18T07:47:53;-7.79;97.86
65836;SHT30;52595;51.608;7.216;2022-12-18T07:50:19;-7.56;97.80
65836;SHT30;52595;51.608;7.216;2022-12-18T07:52:44;-7.49;97.32
65836;SHT30;52595;51.608;7.216;2022-12-18T07:55:09;-7.30;97.68
65836;SHT30;52595;51.608;7.216;2022-12-18T07:57:35;-7.27;96.95
65836;SHT30;52595;51.608;7.216;2022-12-18T08:00:00;-7.23;96.75
65836;SHT30;52595;51.608;7.216;2022-12-18T08:02:26;-7.14;96.73
65836;SHT30;52595;51.608;7.216;2022-12-18T08:04:51;-7.08;96.52
65836;SHT30;52595;51.608;7.216;2022-12-18T08:07:17;-7.03;96.49
65836;SHT30;52595;51.608;7.216;2022-12-18T08:09:42;-6.84;96.45
65836;SHT30;52595;51.608;7.216;2022-12-18T08:12:07;-6.76;96.34
65836;SHT30;52595;51.608;7.216;2022-12-18T08:14:33;-6.68;96.10
65836;SHT30;52595;51.608;7.216;2022-12-18T08:16:58;-6.53;95.89
65836;SHT30;52595;51.608;7.216;2022-12-18T08:19:24;-6.42;95.79
65836;SHT30;52595;51.608;7.216;2022-12-18T08:21:49;-6.35;95.79
65836;SHT30;52595;51.608;7.216;2022-12-18T08:24:14;-6.17;95.60
65836;SHT30;52595;51.608;7.216;2022-12-18T08:26:40;-6.01;95.26
65836;SHT30;52595;51.608;7.216;2022-12-18T08:29:05;-5.87;94.92
65836;SHT30;52595;51.608;7.216;2022-12-18T08:31:31;-5.77;94.57
65836;SHT30;52595;51.608;7.216;2022-12-18T08:33:56;-5.64;94.09
65836;SHT30;52595;51.608;7.216;2022-12-18T08:36:23;-5.54;94.23
65836;SHT30;52595;51.608;7.216;2022-12-18T08:38:52;-5.46;93.33
65836;SHT30;52595;51.608;7.216;2022-12-18T08:41:18;-5.34;93.17
65836;SHT30;52595;51.608;7.216;2022-12-18T08:43:44;-5.32;92.99
65836;SHT30;52595;51.608;7.216;2022-12-18T08:46:33;-5.27;92.23
65836;SHT30;52595;51.608;7.216;2022-12-18T08:48:59;-5.23;91.91
65836;SHT30;52595;51.608;7.216;2022-12-18T08:51:24;-5.17;92.09
65836;SHT30;52595;51.608;7.216;2022-12-18T08:53:50;-5.11;91.87
65836;SHT30;52595;51.608;7.216;2022-12-18T08:56:16;-5.11;92.42
65836;SHT30;52595;51.608;7.216;2022-12-18T08:58:42;-5.01;92.23
65836;SHT30;52595;51.608;7.216;2022-12-18T09:01:09;-4.87;90.94
65836;SHT30;52595;51.608;7.216;2022-12-18T09:03:36;-4.81;91.07
65836;SHT30;52595;51.608;7.216;2022-12-18T09:06:01;-4.68;90.92
65836;SHT30;52595;51.608;7.216;2022-12-18T09:08:27;-4.58;90.56
65836;SHT30;52595;51.608;7.216;2022-12-18T09:10:53;-4.48;90.83
65836;SHT30;52595;51.608;7.216;2022-12-18T09:13:19;-4.41;90.21
65836;SHT30;52595;51.608;7.216;2022-12-18T09:15:50;-4.31;89.83
65836;SHT30;52595;51.608;7.216;2022-12-18T09:18:17;-4.18;89.18
65836;SHT30;52595;51.608;7.216;2022-12-18T09:20:43;-4.09;89.03
65836;SHT30;52595;51.608;7.216;2022-12-18T09:23:09;-4.04;89.53
65836;SHT30;52595;51.608;7.216;2022-12-18T09:25:34;-4.00;88.84
65836;SHT30;52595;51.608;7.216;2022-12-18T09:28:06;-3.99;89.61
65836;SHT30;52595;51.608;7.216;2022-12-18T09:30:32;-3.94;89.85
65836;SHT30;52595;51.608;7.216;2022-12-18T09:32:59;-3.87;89.29
65836;SHT30;52595;51.608;7.216;2022-12-18T09:35:25;-3.78;88.06
65836;SHT30;52595;51.608;7.216;2022-12-18T09:37:53;-3.73;88.21
65836;SHT30;52595;51.608;7.216;2022-12-18T09:40:21;-3.61;88.38
65836;SHT30;52595;51.608;7.216;2022-12-18T09:42:53;-3.52;87.79
65836;SHT30;52595;51.608;7.216;2022-12-18T09:45:20;-3.51;88.14
65836;SHT30;52595;51.608;7.216;2022-12-18T09:47:47;-3.45;87.27
65836;SHT30;52595;51.608;7.216;2022-12-18T09:50:35;-3.38;87.45
65836;SHT30;52595;51.608;7.216;2022-12-18T09:53:05;-3.30;87.13
65836;SHT30;52595;51.608;7.216;2022-12-18T09:55:34;-3.18;86.60
65836;SHT30;52595;51.608;7.216;2022-12-18T09:58:29;-3.07;87.56
65836;SHT30;52595;51.608;7.216;2022-12-18T10:00:55;-3.01;87.55
65836;SHT30;52595;51.608;7.216;2022-12-18T10:03:21;-2.88;86.94
65836;SHT30;52595;51.608;7.216;2022-12-18T10:08:21;-2.70;86.52
65836;SHT30;52595;51.608;7.216;2022-12-18T10:10:52;-2.62;86.76
65836;SHT30;52595;51.608;7.216;2022-12-18T10:13:33;-2.49;86.36
65836;SHT30;52595;51.608;7.216;2022-12-18T10:24:28;-2.18;85.71
65836;SHT30;52595;51.608;7.216;2022-12-18T10:27:06;-2.13;84.68
65836;SHT30;52595;51.608;7.216;2022-12-18T10:29:34;-2.16;83.78
65836;SHT30;52595;51.608;7.216;2022-12-18T10:31:59;-2.11;85.28
65836;SHT30;52595;51.608;7.216;2022-12-18T10:34:24;-2.08;84.45
65836;SHT30;52595;51.608;7.216;2022-12-18T10:36:50;-1.94;84.24
65836;SHT30;52595;51.608;7.216;2022-12-18T10:39:23;-1.87;84.01
65836;SHT30;52595;51.608;7.216;2022-12-18T10:41:50;-1.78;84.25
65836;SHT30;52595;51.608;7.216;2022-12-18T10:44:17;-1.74;83.38
65836;SHT30;52595;51.608;7.216;2022-12-18T10:46:49;-1.61;83.53
65836;SHT30;52595;51.608;7.216;2022-12-18T10:49:25;-1.54;82.94
65836;SHT30;52595;51.608;7.216;2022-12-18T10:52:05;-1.43;82.53
65836;SHT30;52595;51.608;7.216;2022-12-18T10:54:31;-1.34;82.45
65836;SHT30;52595;51.608;7.216;2022-12-18T10:59:53;-0.92;82.06
65836;SHT30;52595;51.608;7.216;2022-12-18T11:02:36;-0.79;81.60
65836;SHT30;52595;51.608;7.216;2022-12-18T11:05:03;-0.73;80.17
65836;SHT30;52595;51.608;7.216;2022-12-18T11:07:49;-0.64;80.53
65836;SHT30;52595;51.608;7.216;2022-12-18T11:10:19;-0.71;80.28
65836;SHT30;52595;51.608;7.216;2022-12-18T11:12:45;-0.58;80.31
65836;SHT30;52595;51.608;7.216;2022-12-18T11:15:21;-0.51;80.36
65836;SHT30;52595;51.608;7.216;2022-12-18T11:17:49;-0.52;79.68
65836;SHT30;52595;51.608;7.216;2022-12-18T11:20:41;-0.45;79.53
65836;SHT30;52595;51.608;7.216;2022-12-18T11:23:10;-0.42;80.32
65836;SHT30;52595;51.608;7.216;2022-12-18T11:25:37;-0.39;80.19
65836;SHT30;52595;51.608;7.216;2022-12-18T11:28:06;-0.41;81.05
65836;SHT30;52595;51.608;7.216;2022-12-18T11:33:46;-0.58;81.50
65836;SHT30;52595;51.608;7.216;2022-12-18T11:36:12;-0.55;81.57
65836;SHT30;52595;51.608;7.216;2022-12-18T11:38:40;-0.49;82.02
65836;SHT30;52595;51.608;7.216;2022-12-18T11:41:21;-0.52;81.78
65836;SHT30;52595;51.608;7.216;2022-12-18T11:44:08;-0.45;82.41
65836;SHT30;52595;51.608;7.216;2022-12-18T11:46:45;-0.34;81.86
65836;SHT30;52595;51.608;7.216;2022-12-18T11:49:35;-0.31;81.25
65836;SHT30;52595;51.608;7.216;2022-12-18T11:52:42;-0.29;81.30
65836;SHT30;52595;51.608;7.216;2022-12-18T11:54:53;-0.28;81.28
65836;SHT30;52595;51.608;7.216;2022-12-18T12:00:31;-0.25;81.20
65836;SHT30;52595;51.608;7.216;2022-12-18T12:11:32;0.02;80.54
65836;SHT30;52595;51.608;7.216;2022-12-18T12:17:22;0.10;80.76
65836;SHT30;52595;51.608;7.216;2022-12-18T12:20:00;0.10;80.76
65836;SHT30;52595;51.608;7.216;2022-12-18T12:22:43;0.04;80.64
65836;SHT30;52595;51.608;7.216;2022-12-18T12:30:29;0.17;80.49
65836;SHT30;52595;51.608;7.216;2022-12-18T12:38:09;0.21;80.26
65836;SHT30;52595;51.608;7.216;2022-12-18T12:40:59;0.24;81.13
65836;SHT30;52595;51.608;7.216;2022-12-18T12:43:38;0.27;81.28
65836;SHT30;52595;51.608;7.216;2022-12-18T12:46:13;0.34;81.61
65836;SHT30;52595;51.608;7.216;2022-12-18T12:48:42;0.26;80.32
65836;SHT30;52595;51.608;7.216;2022-12-18T12:53:37;0.31;81.30
65836;SHT30;52595;51.608;7.216;2022-12-18T12:56:05;0.34;80.74
65836;SHT30;52595;51.608;7.216;2022-12-18T13:06:23;0.33;80.92
65836;SHT30;52595;51.608;7.216;2022-12-18T13:08:58;0.34;81.15
65836;SHT30;52595;51.608;7.216;2022-12-18T13:11:37;0.30;81.40
65836;SHT30;52595;51.608;7.216;2022-12-18T13:14:27;0.27;82.20
65836;SHT30;52595;51.608;7.216;2022-12-18T13:17:17;0.26;82.23
65836;SHT30;52595;51.608;7.216;2022-12-18T13:19:51;0.26;82.34
65836;SHT30;52595;51.608;7.216;2022-12-18T13:22:31;0.24;82.78
65836;SHT30;52595;51.608;7.216;2022-12-18T13:24:58;0.18;82.34
65836;SHT30;52595;51.608;7.216;2022-12-18T13:36:10;0.06;83.19
65836;SHT30;52595;51.608;7.216;2022-12-18T13:38:38;0.09;83.39
65836;SHT30;52595;51.608;7.216;2022-12-18T13:43:50;0.00;83.19
65836;SHT30;52595;51.608;7.216;2022-12-18T13:46:26;-0.03;83.09
65836;SHT30;52595;51.608;7.216;2022-12-18T13:49:40;-0.07;83.59
65836;SHT30;52595;51.608;7.216;2022-12-18T13:52:22;-0.08;83.52
65836;SHT30;52595;51.608;7.216;2022-12-18T13:54:51;-0.10;83.36
65836;SHT30;52595;51.608;7.216;2022-12-18T13:57:32;-0.11;83.58
65836;SHT30;52595;51.608;7.216;2022-12-18T14:00:14;-0.15;83.59
65836;SHT30;52595;51.608;7.216;2022-12-18T14:02:44;-0.15;83.53
65836;SHT30;52595;51.608;7.216;2022-12-18T14:05:24;-0.19;83.96
65836;SHT30;52595;51.608;7.216;2022-12-18T14:07:50;-0.15;84.52
65836;SHT30;52595;51.608;7.216;2022-12-18T14:10:16;-0.17;83.42
65836;SHT30;52595;51.608;7.216;2022-12-18T14:12:45;-0.24;83.61
65836;SHT30;52595;51.608;7.216;2022-12-18T14:18:00;-0.28;83.47
65836;SHT30;52595;51.608;7.216;2022-12-18T14:20:31;-0.35;83.97
65836;SHT30;52595;51.608;7.216;2022-12-18T14:22:58;-0.39;83.42
65836;SHT30;52595;51.608;7.216;2022-12-18T14:25:25;-0.39;83.38
65836;SHT30;52595;51.608;7.216;2022-12-18T14:27:53;-0.42;83.50
65836;SHT30;52595;51.608;7.216;2022-12-18T14:30:32;-0.45;84.00
65836;SHT30;52595;51.608;7.216;2022-12-18T14:33:11;-0.51;84.15
65836;SHT30;52595;51.608;7.216;2022-12-18T14:35:40;-0.54;84.32
65836;SHT30;52595;51.608;7.216;2022-12-18T14:41:14;-0.57;85.05
65836;SHT30;52595;51.608;7.216;2022-12-18T14:43:42;-0.62;85.18
65836;SHT30;52595;51.608;7.216;2022-12-18T14:46:32;-0.62;85.39
65836;SHT30;52595;51.608;7.216;2022-12-18T14:49:00;-0.61;85.40
65836;SHT30;52595;51.608;7.216;2022-12-18T14:51:28;-0.64;85.20
65836;SHT30;52595;51.608;7.216;2022-12-18T14:53:57;-0.62;85.34
65836;SHT30;52595;51.608;7.216;2022-12-18T14:59:13;-0.65;85.52
65836;SHT30;52595;51.608;7.216;2022-12-18T15:01:51;-0.66;85.79
65836;SHT30;52595;51.608;7.216;2022-12-18T15:04:26;-0.68;85.45
65836;SHT30;52595;51.608;7.216;2022-12-18T15:07:09;-0.69;85.92
65836;SHT30;52595;51.608;7.216;2022-12-18T15:09:37;-0.71;85.68
65836;SHT30;52595;51.608;7.216;2022-12-18T15:12:03;-0.69;85.68
65836;SHT30;52595;51.608;7.216;2022-12-18T15:14:33;-0.69;85.85
65836;SHT30;52595;51.608;7.216;2022-12-18T15:17:01;-0.68;85.87
65836;SHT30;52595;51.608;7.216;2022-12-18T15:19:40;-0.69;85.83
65836;SHT30;52595;51.608;7.216;2022-12-18T15:22:33;-0.66;86.06
65836;SHT30;52595;51.608;7.216;2022-12-18T15:25:00;-0.66;86.06
65836;SHT30;52595;51.608;7.216;2022-12-18T15:27:33;-0.69;85.86
65836;SHT30;52595;51.608;7.216;2022-12-18T15:32:36;-0.71;86.05
65836;SHT30;52595;51.608;7.216;2022-12-18T15:37:37;-0.69;86.35
65836;SHT30;52595;51.608;7.216;2022-12-18T15:40:03;-0.68;86.15
65836;SHT30;52595;51.608;7.216;2022-12-18T15:42:29;-0.68;85.91
65836;SHT30;52595;51.608;7.216;2022-12-18T15:45:13;-0.69;86.30
65836;SHT30;52595;51.608;7.216;2022-12-18T15:47:40;-0.65;85.63
65836;SHT30;52595;51.608;7.216;2022-12-18T15:50:07;-0.62;85.40
65836;SHT30;52595;51.608;7.216;2022-12-18T15:52:44;-0.64;85.38
65836;SHT30;52595;51.608;7.216;2022-12-18T15:55:16;-0.64;85.51
65836;SHT30;52595;51.608;7.216;2022-12-18T15:58:00;-0.65;85.57
65836;SHT30;52595;51.608;7.216;2022-12-18T16:00:26;-0.62;85.14
65836;SHT30;52595;51.608;7.216;2022-12-18T16:02:52;-0.45;83.04
65836;SHT30;52595;51.608;7.216;2022-12-18T16:05:24;-0.37;81.08
65836;SHT30;52595;51.608;7.216;2022-12-18T16:07:49;-0.22;79.71
65836;SHT30;52595;51.608;7.216;2022-12-18T16:10:15;-0.06;77.93
65836;SHT30;52595;51.608;7.216;2022-12-18T16:12:41;0.10;76.89
65836;SHT30;52595;51.608;7.216;2022-12-18T16:15:07;0.21;76.07
65836;SHT30;52595;51.608;7.216;2022-12-18T16:17:33;0.21;75.61
65836;SHT30;52595;51.608;7.216;2022-12-18T16:19:58;0.21;75.34
65836;SHT30;52595;51.608;7.216;2022-12-18T16:22:26;0.18;75.24
65836;SHT30;52595;51.608;7.216;2022-12-18T16:24:52;0.18;75.26
65836;SHT30;52595;51.608;7.216;2022-12-18T16:27:19;0.23;74.88
65836;SHT30;52595;51.608;7.216;2022-12-18T16:29:45;0.30;74.09
65836;SHT30;52595;51.608;7.216;2022-12-18T16:32:16;0.30;73.70
65836;SHT30;52595;51.608;7.216;2022-12-18T16:34:42;0.47;72.96
65836;SHT30;52595;51.608;7.216;2022-12-18T16:37:10;0.37;73.28
65836;SHT30;52595;51.608;7.216;2022-12-18T16:39:36;0.41;72.93
65836;SHT30;52595;51.608;7.216;2022-12-18T16:42:05;0.46;72.32
65836;SHT30;52595;51.608;7.216;2022-12-18T16:44:31;0.50;72.62
65836;SHT30;52595;51.608;7.216;2022-12-18T16:46:56;0.51;72.88
65836;SHT30;52595;51.608;7.216;2022-12-18T16:49:27;0.60;72.47
65836;SHT30;52595;51.608;7.216;2022-12-18T16:51:52;0.57;72.58
65836;SHT30;52595;51.608;7.216;2022-12-18T16:54:17;0.65;72.32
65836;SHT30;52595;51.608;7.216;2022-12-18T16:56:43;0.72;71.95
65836;SHT30;52595;51.608;7.216;2022-12-18T16:59:10;0.88;72.03
65836;SHT30;52595;51.608;7.216;2022-12-18T17:01:36;0.88;72.03
65836;SHT30;52595;51.608;7.216;2022-12-18T17:04:03;0.85;72.56
65836;SHT30;52595;51.608;7.216;2022-12-18T17:06:31;0.82;73.00
65836;SHT30;52595;51.608;7.216;2022-12-18T17:09:02;0.74;73.37
65836;SHT30;52595;51.608;7.216;2022-12-18T17:11:29;0.68;73.72
65836;SHT30;52595;51.608;7.216;2022-12-18T17:13:55;0.71;73.95
65836;SHT30;52595;51.608;7.216;2022-12-18T17:16:21;0.75;73.94
65836;SHT30;52595;51.608;7.216;2022-12-18T17:18:46;0.74;73.96
65836;SHT30;52595;51.608;7.216;2022-12-18T17:21:13;0.71;74.63
65836;SHT30;52595;51.608;7.216;2022-12-18T17:23:40;0.75;74.56